createdAt,value
2019-05-06T00:01:44.253Z,88.60
2019-05-06T00:04:14.529Z,88.70
2019-05-06T00:06:44.940Z,88.80
2019-05-06T00:09:16.124Z,87.80
2019-05-06T00:11:46.402Z,87.90
2019-05-06T00:14:18.015Z,86.90
2019-05-06T00:16:48.406Z,86.80
2019-05-06T00:19:18.583Z,86.50
2019-05-06T00:21:49.737Z,86.00
2019-05-06T00:24:23.863Z,85.80
2019-05-06T00:27:15.612Z,85.40
2019-05-06T00:29:46.842Z,84.80
2019-05-06T00:32:17.174Z,83.90
2019-05-06T00:34:47.282Z,84.10
2019-05-06T00:37:18.918Z,83.90
2019-05-06T00:40:14.755Z,83.60
2019-05-06T00:43:14.057Z,83.10
2019-05-06T00:45:44.571Z,82.70
2019-05-06T00:48:16.745Z,82.40
2019-05-06T00:50:47.078Z,82.30
2019-05-06T00:53:19.639Z,82.30
2019-05-06T00:55:51.027Z,82.30
2019-05-06T00:58:23.872Z,82.40
2019-05-06T01:00:54.298Z,82.30
2019-05-06T01:03:27.018Z,82.30
2019-05-06T01:05:57.601Z,82.60
2019-05-06T01:08:27.870Z,82.70
2019-05-06T01:10:58.067Z,82.70
2019-05-06T01:13:40.468Z,82.90
2019-05-06T01:16:12.745Z,83.00
2019-05-06T01:18:45.097Z,83.20
2019-05-06T01:21:16.850Z,83.20
2019-05-06T01:23:47.194Z,83.90
2019-05-06T01:26:17.601Z,84.50
2019-05-06T01:28:48.471Z,83.70
2019-05-06T01:31:19.874Z,83.20
2019-05-06T01:33:50.013Z,82.70
2019-05-06T01:36:20.215Z,82.60
2019-05-06T01:39:09.478Z,82.70
2019-05-06T01:42:01.690Z,82.90
2019-05-06T01:44:34.263Z,82.90
2019-05-06T01:47:04.398Z,83.50
2019-05-06T01:49:34.508Z,82.90
2019-05-06T01:52:05.903Z,82.80
2019-05-06T01:54:37.414Z,82.90
2019-05-06T01:57:07.829Z,82.90
2019-05-06T01:59:37.823Z,83.20
2019-05-06T02:02:09.064Z,84.00
2019-05-06T02:04:39.091Z,84.10
2019-05-06T02:07:09.885Z,84.60
2019-05-06T02:09:39.943Z,85.10
2019-05-06T02:12:10.121Z,85.90
2019-05-06T02:14:40.241Z,86.20
2019-05-06T02:17:10.962Z,85.90
2019-05-06T02:19:41.076Z,86.30
2019-05-06T02:22:25.987Z,86.20
2019-05-06T02:25:05.176Z,87.50
2019-05-06T02:27:35.546Z,86.60
2019-05-06T02:30:36.667Z,87.40
2019-05-06T02:33:15.351Z,88.40
2019-05-06T02:35:55.173Z,88.10
2019-05-06T02:38:35.575Z,88.00
2019-05-06T02:40:59.372Z,87.70
2019-05-06T02:43:29.781Z,87.20
2019-05-06T02:46:03.929Z,87.40
2019-05-06T02:48:54.433Z,87.30
2019-05-06T02:51:27.052Z,87.20
2019-05-06T02:53:57.408Z,87.10
2019-05-06T02:56:27.494Z,86.80
2019-05-06T02:58:58.882Z,86.90
2019-05-06T03:01:29.068Z,86.90
2019-05-06T03:03:59.198Z,86.50
2019-05-06T03:06:29.368Z,87.00
2019-05-06T03:08:59.713Z,87.40
2019-05-06T03:11:29.850Z,87.40
2019-05-06T03:14:03.021Z,87.20
2019-05-06T03:16:33.383Z,87.20
2019-05-06T03:19:04.289Z,87.20
2019-05-06T03:21:54.633Z,87.40
2019-05-06T03:24:43.681Z,88.20
2019-05-06T03:27:14.298Z,88.10
2019-05-06T03:29:44.952Z,88.10
2019-05-06T03:32:23.025Z,87.70
2019-05-06T03:35:07.719Z,87.70
2019-05-06T03:37:19.500Z,87.50
2019-05-06T03:39:52.634Z,87.20
2019-05-06T03:42:22.986Z,87.10
2019-05-06T03:44:57.131Z,87.10
2019-05-06T03:47:46.277Z,87.20
2019-05-06T03:50:16.568Z,87.20
2019-05-06T03:52:46.703Z,86.90
2019-05-06T03:55:17.086Z,87.30
2019-05-06T03:57:48.917Z,87.30
2019-05-06T04:00:19.364Z,87.70
2019-05-06T04:02:49.456Z,88.00
2019-05-06T04:05:19.833Z,88.30
2019-05-06T04:07:53.022Z,88.90
2019-05-06T04:10:23.190Z,88.70
2019-05-06T04:12:54.119Z,88.70
2019-05-06T04:18:03.622Z,88.40
2019-05-06T04:20:43.784Z,88.00
2019-05-06T04:23:37.609Z,87.50
2019-05-06T04:26:13.418Z,89.10
2019-05-06T04:28:43.656Z,86.80
2019-05-06T04:31:13.829Z,88.10
2019-05-06T04:34:03.495Z,86.80
2019-05-06T04:36:17.567Z,87.50
2019-05-06T04:38:47.566Z,86.50
2019-05-06T04:41:17.899Z,86.20
2019-05-06T04:43:48.172Z,86.20
2019-05-06T04:46:18.505Z,85.90
2019-05-06T04:48:53.571Z,85.90
2019-05-06T04:51:24.929Z,86.30
2019-05-06T04:53:56.199Z,86.30
2019-05-06T04:56:26.873Z,86.40
2019-05-06T04:58:57.292Z,86.50
2019-05-06T05:01:27.694Z,85.70
2019-05-06T05:03:58.001Z,85.80
2019-05-06T05:06:28.264Z,85.30
2019-05-06T05:08:58.783Z,84.40
2019-05-06T05:11:37.749Z,84.40
2019-05-06T05:14:25.031Z,83.30
2019-05-06T05:17:02.183Z,83.30
2019-05-06T05:19:33.775Z,82.90
2019-05-06T05:22:07.181Z,81.90
2019-05-06T05:24:37.708Z,82.20
2019-05-06T05:27:07.943Z,81.70
2019-05-06T05:29:38.942Z,81.70
2019-05-06T05:32:08.966Z,82.50
2019-05-06T05:34:40.824Z,80.70
2019-05-06T05:37:12.119Z,80.70
2019-05-06T05:39:42.691Z,80.00
2019-05-06T05:42:22.411Z,79.40
2019-05-06T05:44:53.325Z,79.60
2019-05-06T05:47:24.415Z,80.00
2019-05-06T05:50:22.669Z,79.70
2019-05-06T05:52:52.709Z,78.80
2019-05-06T05:55:22.957Z,78.30
2019-05-06T05:57:53.546Z,77.80
2019-05-06T06:00:27.240Z,78.00
2019-05-06T06:02:57.771Z,77.80
2019-05-06T06:05:30.174Z,77.60
2019-05-06T06:08:02.892Z,76.70
2019-05-06T06:10:43.096Z,75.70
2019-05-06T06:13:13.557Z,76.50
2019-05-06T06:16:05.706Z,74.70
2019-05-06T06:18:52.489Z,74.70
2019-05-06T06:21:33.263Z,72.80
2019-05-06T06:24:08.498Z,73.20
2019-05-06T06:26:38.633Z,69.90
2019-05-06T06:29:09.031Z,69.70
2019-05-06T06:31:52.274Z,68.50
2019-05-06T06:34:28.175Z,70.30
2019-05-06T06:37:29.486Z,70.50
2019-05-06T06:40:02.581Z,71.30
2019-05-06T06:42:34.943Z,69.60
2019-05-06T06:45:05.960Z,70.00
2019-05-06T06:47:36.344Z,68.50
2019-05-06T06:50:07.158Z,67.70
2019-05-06T06:55:08.847Z,66.90
2019-05-06T06:57:53.050Z,68.30
2019-05-06T07:00:33.561Z,66.90
2019-05-06T07:03:13.120Z,67.10
2019-05-06T07:05:48.546Z,67.30
2019-05-06T07:08:32.054Z,66.40
2019-05-06T07:10:55.235Z,66.80
2019-05-06T07:13:25.476Z,65.50
2019-05-06T07:15:56.241Z,64.40
2019-05-06T07:18:26.286Z,67.10
2019-05-06T07:21:06.231Z,66.40
2019-05-06T07:23:36.715Z,65.00
2019-05-06T07:28:36.783Z,65.00
2019-05-06T07:31:20.736Z,65.60
2019-05-06T07:33:39.036Z,64.00
2019-05-06T07:36:13.726Z,63.00
2019-05-06T07:38:52.387Z,61.50
2019-05-06T07:41:28.052Z,61.00
2019-05-06T07:44:17.103Z,60.40
2019-05-06T07:46:55.516Z,59.80
2019-05-06T07:49:25.627Z,60.20
2019-05-06T07:51:56.189Z,60.30
2019-05-06T07:54:26.179Z,60.20
2019-05-06T07:56:56.738Z,60.40
2019-05-06T07:59:26.825Z,59.70
2019-05-06T08:01:57.750Z,59.80
2019-05-06T08:04:27.955Z,59.70
2019-05-06T08:06:58.800Z,60.30
2019-05-06T08:09:29.434Z,61.90
2019-05-06T08:12:02.803Z,61.30
2019-05-06T08:14:43.305Z,60.90
2019-05-06T08:17:23.110Z,62.20
2019-05-06T08:19:54.729Z,61.70
2019-05-06T08:23:02.435Z,61.30
2019-05-06T08:25:42.478Z,62.20
2019-05-06T08:28:13.421Z,61.20
2019-05-06T08:30:43.649Z,60.60
2019-05-06T08:33:15.585Z,60.60
2019-05-06T08:35:45.625Z,61.20
2019-05-06T08:38:16.035Z,62.20
2019-05-06T08:40:46.147Z,61.20
2019-05-06T08:43:16.638Z,59.90
2019-05-06T08:45:46.838Z,59.80
2019-05-06T08:48:16.984Z,59.70
2019-05-06T08:50:52.770Z,59.70
2019-05-06T08:53:42.439Z,59.10
2019-05-06T08:56:16.541Z,59.20
2019-05-06T08:58:47.371Z,58.90
2019-05-06T09:01:27.775Z,58.30
2019-05-06T09:04:08.895Z,57.30
2019-05-06T09:06:34.055Z,56.20
2019-05-06T09:09:02.560Z,55.70
2019-05-06T09:11:34.581Z,55.30
2019-05-06T09:14:09.668Z,55.70
2019-05-06T09:16:38.984Z,55.60
2019-05-06T09:19:12.847Z,55.20
2019-05-06T09:21:45.950Z,55.60
2019-05-06T09:24:15.133Z,55.20
2019-05-06T09:27:16.191Z,55.20
2019-05-06T09:29:52.174Z,54.60
2019-05-06T09:32:26.218Z,52.10
2019-05-06T09:35:02.841Z,52.50
2019-05-06T09:37:32.729Z,51.10
2019-05-06T09:40:03.102Z,50.00
2019-05-06T09:42:35.376Z,50.00
2019-05-06T09:45:06.123Z,49.50
2019-05-06T09:47:58.293Z,49.90
2019-05-06T09:50:46.013Z,48.60
2019-05-06T09:53:29.833Z,48.20
2019-05-06T09:56:28.082Z,47.10
2019-05-06T09:58:58.252Z,49.50
2019-05-06T10:01:29.812Z,47.20
2019-05-06T10:06:33.138Z,45.70
2019-05-06T10:09:05.187Z,46.60
2019-05-06T10:11:35.619Z,46.70
2019-05-06T10:14:07.742Z,46.10
2019-05-06T10:16:39.394Z,46.50
2019-05-06T10:19:13.197Z,45.60
2019-05-06T10:21:45.550Z,44.70
2019-05-06T10:24:15.683Z,45.70
2019-05-06T10:26:52.352Z,46.40
2019-05-06T10:29:44.415Z,46.20
2019-05-06T10:32:38.147Z,46.90
2019-05-06T10:35:08.917Z,46.20
2019-05-06T10:37:52.682Z,46.40
2019-05-06T10:40:33.154Z,45.70
2019-05-06T10:43:17.262Z,44.90
2019-05-06T10:45:47.329Z,43.40
2019-05-06T10:48:18.792Z,42.10
2019-05-06T10:50:52.167Z,42.00
2019-05-06T10:53:24.167Z,41.90
2019-05-06T10:56:02.149Z,40.90
2019-05-06T10:58:32.726Z,39.50
2019-05-06T11:01:24.927Z,41.50
2019-05-06T11:03:55.081Z,40.40
2019-05-06T11:06:27.947Z,40.60
2019-05-06T11:08:58.354Z,40.70
2019-05-06T11:11:35.030Z,40.90
2019-05-06T11:14:02.900Z,39.70
2019-05-06T11:16:33.642Z,39.60
2019-05-06T11:19:05.197Z,40.10
2019-05-06T11:21:37.538Z,40.10
2019-05-06T11:24:07.979Z,40.30
2019-05-06T11:29:12.455Z,40.90
2019-05-06T11:32:02.463Z,41.50
2019-05-06T11:34:44.815Z,40.50
2019-05-06T11:37:46.987Z,40.80
2019-05-06T11:40:16.456Z,40.60
2019-05-06T11:42:43.607Z,40.80
2019-05-06T11:45:14.914Z,41.40
2019-05-06T11:47:45.003Z,41.50
2019-05-06T11:52:45.392Z,41.10
2019-05-06T11:55:27.893Z,41.60
2019-05-06T11:57:48.677Z,42.50
2019-05-06T12:00:23.905Z,42.30
2019-05-06T12:05:23.779Z,41.90
2019-05-06T12:08:06.909Z,41.40
2019-05-06T12:10:26.376Z,41.70
2019-05-06T12:12:56.716Z,41.70
2019-05-06T12:15:26.936Z,41.30
2019-05-06T12:17:57.070Z,42.40
2019-05-06T12:20:29.479Z,40.40
2019-05-06T12:23:03.837Z,40.90
2019-05-06T12:28:04.034Z,40.70
2019-05-06T12:30:35.852Z,41.30
2019-05-06T12:33:37.004Z,40.30
2019-05-06T12:39:06.473Z,39.70
2019-05-06T12:41:43.117Z,39.00
2019-05-06T12:44:13.080Z,38.10
2019-05-06T12:46:53.279Z,38.00
2019-05-06T12:49:23.315Z,37.90
2019-05-06T12:51:53.843Z,37.00
2019-05-06T12:54:23.979Z,37.50
2019-05-06T12:56:58.406Z,37.90
2019-05-06T12:59:29.664Z,37.70
2019-05-06T13:02:02.828Z,38.60
2019-05-06T13:04:49.616Z,39.30
2019-05-06T13:07:09.425Z,40.20
2019-05-06T13:14:43.227Z,39.10
2019-05-06T13:17:19.995Z,38.90
2019-05-06T13:19:52.231Z,39.00
2019-05-06T13:22:33.999Z,39.30
2019-05-06T13:27:34.876Z,41.60
2019-05-06T13:30:05.679Z,40.60
2019-05-06T13:32:38.369Z,41.80
2019-05-06T13:35:08.991Z,40.80
2019-05-06T13:37:42.295Z,40.50
2019-05-06T13:40:12.931Z,41.10
2019-05-06T13:42:55.786Z,41.90
2019-05-06T13:45:26.010Z,42.00
2019-05-06T13:48:14.545Z,42.90
2019-05-06T13:50:46.580Z,43.60
2019-05-06T13:53:18.841Z,44.00
2019-05-06T13:55:49.071Z,43.70
2019-05-06T13:58:21.280Z,44.60
2019-05-06T14:00:52.049Z,45.00
2019-05-06T14:03:22.295Z,45.00
2019-05-06T14:05:52.666Z,45.20
2019-05-06T14:08:25.148Z,44.90
2019-05-06T14:10:59.538Z,46.00
2019-05-06T14:13:27.690Z,45.40
2019-05-06T14:15:57.706Z,46.40
2019-05-06T14:18:28.000Z,45.90
2019-05-06T14:20:58.548Z,46.70
2019-05-06T14:23:28.822Z,48.20
2019-05-06T14:26:24.201Z,45.00
2019-05-06T14:31:35.078Z,44.10
2019-05-06T14:34:07.305Z,43.60
2019-05-06T14:39:15.313Z,44.20
2019-05-06T14:44:16.967Z,44.30
2019-05-06T14:47:09.094Z,43.60
2019-05-06T14:49:39.192Z,43.80
2019-05-06T14:52:09.562Z,42.10
2019-05-06T14:54:53.834Z,42.90
2019-05-06T14:57:25.310Z,43.00
2019-05-06T14:59:56.432Z,43.30
2019-05-06T15:02:27.746Z,41.80
2019-05-06T15:04:59.738Z,42.30
2019-05-06T15:07:30.125Z,41.50
2019-05-06T15:10:16.379Z,40.70
2019-05-06T15:12:33.767Z,40.90
2019-05-06T15:15:04.632Z,37.70
2019-05-06T15:17:36.775Z,38.20
2019-05-06T15:20:07.335Z,37.70
2019-05-06T15:22:37.719Z,35.80
2019-05-06T15:25:12.794Z,33.00
2019-05-06T15:27:42.740Z,31.90
2019-05-06T15:30:20.267Z,32.70
2019-05-06T15:32:52.897Z,31.00
2019-05-06T15:35:42.847Z,31.30
2019-05-06T15:38:22.098Z,31.10
2019-05-06T15:40:52.761Z,30.10
2019-05-06T15:43:23.264Z,30.00
2019-05-06T15:45:54.352Z,30.10
2019-05-06T15:48:25.387Z,31.80
2019-05-06T15:50:55.544Z,33.10
2019-05-06T15:53:25.983Z,32.30
2019-05-06T15:58:28.157Z,33.50
2019-05-06T16:01:02.931Z,34.00
2019-05-06T16:03:33.483Z,35.60
2019-05-06T16:06:05.087Z,35.80
2019-05-06T16:08:35.218Z,36.60
2019-05-06T16:11:05.413Z,38.00
2019-05-06T16:13:35.565Z,37.40
2019-05-06T16:16:07.008Z,37.50
2019-05-06T16:18:37.211Z,38.60
2019-05-06T16:21:07.933Z,38.10
2019-05-06T16:23:42.891Z,38.60
2019-05-06T16:28:45.095Z,39.30
2019-05-06T16:31:15.490Z,39.90
2019-05-06T16:33:47.298Z,40.40
2019-05-06T16:36:17.618Z,39.90
2019-05-06T16:38:47.737Z,40.00
2019-05-06T16:41:17.825Z,43.50
2019-05-06T16:43:47.892Z,41.10
2019-05-06T16:46:18.031Z,41.80
2019-05-06T16:48:48.146Z,41.80
2019-05-06T16:51:18.364Z,43.00
2019-05-06T16:53:48.580Z,42.30
2019-05-06T16:56:25.111Z,42.20
2019-05-06T16:58:57.952Z,42.30
2019-05-06T17:01:28.435Z,41.50
2019-05-06T17:04:08.081Z,42.90
2019-05-06T17:06:38.847Z,41.80
2019-05-06T17:09:20.046Z,41.70
2019-05-06T17:11:42.902Z,42.20
2019-05-06T17:14:13.085Z,42.30
2019-05-06T17:16:44.026Z,42.50
2019-05-06T17:19:14.100Z,42.70
2019-05-06T17:21:44.251Z,43.30
2019-05-06T17:24:14.724Z,43.60
2019-05-06T17:26:44.880Z,43.80
2019-05-06T17:29:26.321Z,43.20
2019-05-06T17:32:24.320Z,44.00
2019-05-06T17:34:57.460Z,43.60
2019-05-06T17:37:46.098Z,43.40
2019-05-06T17:40:17.544Z,44.40
2019-05-06T17:42:47.703Z,43.30
2019-05-06T17:45:35.232Z,43.80
2019-05-06T17:48:13.392Z,43.90
2019-05-06T17:53:15.018Z,44.00
2019-05-06T17:55:45.304Z,45.40
2019-05-06T17:58:15.967Z,45.40
2019-05-06T18:00:46.212Z,45.80
2019-05-06T18:03:17.138Z,45.90
2019-05-06T18:05:47.397Z,46.20
2019-05-06T18:08:17.488Z,47.10
2019-05-06T18:10:47.625Z,46.80
2019-05-06T18:13:17.937Z,47.60
2019-05-06T18:15:48.150Z,47.90
2019-05-06T18:20:47.794Z,47.90
2019-05-06T18:23:19.531Z,48.70
2019-05-06T18:28:19.248Z,49.30
2019-05-06T18:30:49.518Z,49.40
2019-05-06T18:33:19.938Z,51.10
2019-05-06T18:35:53.507Z,51.40
2019-05-06T18:38:22.877Z,50.40
2019-05-06T18:40:52.984Z,50.70
2019-05-06T18:43:23.179Z,51.20
2019-05-06T18:45:54.294Z,51.10
2019-05-06T18:48:28.472Z,51.90
2019-05-06T18:50:56.394Z,52.60
2019-05-06T18:53:27.517Z,52.10
2019-05-06T18:55:57.968Z,53.10
2019-05-06T18:58:28.272Z,53.60
2019-05-06T19:00:58.735Z,53.00
2019-05-06T19:03:32.465Z,53.10
2019-05-06T19:06:02.787Z,53.00
2019-05-06T19:11:15.484Z,54.60
2019-05-06T19:13:46.878Z,54.60
2019-05-06T19:16:17.006Z,56.00
2019-05-06T19:18:47.360Z,55.00
2019-05-06T19:21:17.501Z,55.90
2019-05-06T19:23:48.162Z,55.00
2019-05-06T19:26:18.707Z,55.40
2019-05-06T19:28:48.980Z,55.60
2019-05-06T19:31:20.053Z,55.00
2019-05-06T19:33:52.613Z,54.70
2019-05-06T19:36:23.454Z,56.30
2019-05-06T19:38:56.018Z,54.60
2019-05-06T19:41:26.152Z,55.20
2019-05-06T19:43:56.402Z,54.20
2019-05-06T19:46:27.632Z,54.10
2019-05-06T19:49:01.814Z,53.70
2019-05-06T19:51:33.242Z,53.90
2019-05-06T19:54:03.385Z,53.80
2019-05-06T19:56:33.718Z,54.00
2019-05-06T19:59:04.427Z,54.60
2019-05-06T20:01:34.972Z,54.50
2019-05-06T20:04:05.192Z,56.10
2019-05-06T20:06:47.698Z,55.30
2019-05-06T20:09:35.957Z,56.80
2019-05-06T20:12:09.300Z,58.10
2019-05-06T20:14:41.745Z,57.20
2019-05-06T20:17:12.910Z,58.00
2019-05-06T20:19:43.940Z,57.90
2019-05-06T20:22:14.171Z,58.10
2019-05-06T20:24:44.383Z,58.10
2019-05-06T20:27:14.523Z,57.80
2019-05-06T20:29:44.574Z,57.80
2019-05-06T20:32:15.247Z,56.50
2019-05-06T20:34:45.438Z,56.50
2019-05-06T20:37:16.388Z,56.60
2019-05-06T20:39:46.899Z,57.50
2019-05-06T20:42:17.113Z,57.30
2019-05-06T20:44:47.180Z,57.90
2019-05-06T20:47:17.322Z,57.40
2019-05-06T20:49:47.631Z,58.50
2019-05-06T20:52:17.663Z,58.20
2019-05-06T20:54:48.655Z,58.00
2019-05-06T20:57:18.783Z,58.50
2019-05-06T20:59:49.071Z,58.30
2019-05-06T21:02:25.501Z,58.80
2019-05-06T21:04:52.742Z,58.80
2019-05-06T21:07:24.913Z,59.10
2019-05-06T21:09:55.444Z,59.40
2019-05-06T21:12:25.600Z,59.40
2019-05-06T21:14:56.014Z,59.40
2019-05-06T21:17:26.102Z,59.40
2019-05-06T21:19:56.545Z,59.70
2019-05-06T21:22:26.661Z,59.80
2019-05-06T21:24:56.810Z,60.40
2019-05-06T21:27:30.951Z,61.10
2019-05-06T21:30:02.509Z,61.90
2019-05-06T21:32:34.314Z,62.20
2019-05-06T21:35:05.394Z,64.10
2019-05-06T21:37:35.554Z,62.90
2019-05-06T21:40:05.954Z,62.50
2019-05-06T21:42:36.411Z,63.90
2019-05-06T21:45:06.622Z,64.10
2019-05-06T21:47:36.633Z,64.50
2019-05-06T21:50:07.362Z,64.70
2019-05-06T21:52:39.835Z,65.00
2019-05-06T21:55:09.370Z,65.20
2019-05-06T21:57:42.249Z,65.50
2019-05-06T22:00:16.942Z,66.40
2019-05-06T22:02:48.007Z,67.40
2019-05-06T22:05:18.368Z,67.60
2019-05-06T22:07:48.425Z,68.40
2019-05-06T22:10:18.747Z,67.60
2019-05-06T22:12:48.799Z,69.50
2019-05-06T22:15:18.931Z,69.10
2019-05-06T22:17:48.974Z,68.40
2019-05-06T22:20:19.099Z,69.60
2019-05-06T22:22:49.139Z,68.70
2019-05-06T22:25:19.321Z,69.10
2019-05-06T22:27:51.777Z,69.00
2019-05-06T22:30:23.721Z,66.60
2019-05-06T22:32:54.303Z,68.70
2019-05-06T22:35:24.388Z,69.50
2019-05-06T22:37:54.751Z,69.60
2019-05-06T22:40:24.824Z,69.10
2019-05-06T22:42:55.430Z,70.10
2019-05-06T22:45:25.523Z,70.80
2019-05-06T22:47:55.721Z,71.00
2019-05-06T22:50:25.846Z,71.50
2019-05-06T22:52:55.845Z,71.90
2019-05-06T22:55:26.230Z,72.10
2019-05-06T22:57:56.295Z,72.40
2019-05-06T23:00:27.206Z,72.80
2019-05-06T23:03:02.800Z,73.10
2019-05-06T23:05:34.227Z,73.40
2019-05-06T23:08:04.191Z,73.60
2019-05-06T23:10:34.605Z,74.70
2019-05-06T23:13:04.635Z,74.50
2019-05-06T23:15:35.017Z,74.80
2019-05-06T23:18:05.092Z,75.10
2019-05-06T23:20:35.893Z,75.30
2019-05-06T23:23:05.904Z,75.30
2019-05-06T23:25:37.627Z,75.00
2019-05-06T23:33:09.239Z,74.80
2019-05-06T23:35:39.359Z,75.00
2019-05-06T23:38:45.012Z,76.60
2019-05-06T23:41:52.812Z,74.30
2019-05-06T23:44:58.277Z,74.90
2019-05-06T23:48:03.722Z,75.10
2019-05-06T23:51:09.400Z,75.40
2019-05-06T23:54:14.615Z,75.70
2019-05-06T23:59:17.484Z,76.50
